Time;durP1;ratioP1;P1;durP2;ratioP2;P2;SDS_P1;SDS_P2;PMS_P1;PMS_P2;Temp;Humidity;BMP_temperature;BMP_pressure;BME280_temperature;BME280_humidity;BME280_pressure;Samples;Min_cycle;Max_cycle;Signal;HPM_P1;HPM_P2
2021/09/04 00:02:05;;;;;;;24.10;17.60;;;13.10;99.90;;;;;;5031232;28;20120;-70
2021/09/04 00:04:31;;;;;;;22.60;16.65;;;13.00;99.90;;;;;;5031116;28;20021;-70
2021/09/04 00:06:56;;;;;;;27.27;15.70;;;13.00;99.90;;;;;;5031203;28;20048;-69
2021/09/04 00:09:22;;;;;;;20.08;14.25;;;12.90;99.90;;;;;;5029869;28;20494;-72
2021/09/04 00:11:47;;;;;;;20.35;14.27;;;12.90;99.90;;;;;;5031157;28;20025;-72
2021/09/04 00:14:13;;;;;;;19.08;14.02;;;12.90;99.90;;;;;;5031147;28;20034;-70
2021/09/04 00:16:39;;;;;;;25.88;14.65;;;12.90;99.90;;;;;;5030232;28;20079;-70
2021/09/04 00:19:04;;;;;;;18.55;13.60;;;12.80;99.90;;;;;;5031313;28;20037;-70
2021/09/04 00:21:30;;;;;;;18.70;13.90;;;12.80;99.90;;;;;;5031393;28;20093;-72
2021/09/04 00:23:56;;;;;;;22.00;14.50;;;12.80;99.90;;;;;;5031433;28;20036;-71
2021/09/04 00:26:24;;;;;;;20.50;13.93;;;12.80;99.90;;;;;;5030729;28;20104;-72
2021/09/04 00:28:50;;;;;;;20.63;14.73;;;12.80;99.90;;;;;;5031117;28;20022;-70
2021/09/04 00:31:16;;;;;;;24.90;15.70;;;12.80;99.90;;;;;;5030951;28;20037;-70
2021/09/04 00:33:41;;;;;;;20.90;15.23;;;12.80;99.90;;;;;;5031217;28;20533;-70
2021/09/04 00:36:07;;;;;;;21.85;16.90;;;12.80;99.90;;;;;;5030360;28;20018;-70
2021/09/04 00:38:32;;;;;;;23.20;16.90;;;12.70;99.90;;;;;;5029888;28;20029;-70
2021/09/04 00:40:58;;;;;;;21.08;15.52;;;12.70;99.90;;;;;;5029724;28;20026;-70
2021/09/04 00:43:24;;;;;;;23.10;15.30;;;12.60;99.90;;;;;;5029930;28;20502;-70
2021/09/04 00:45:50;;;;;;;22.83;16.20;;;12.60;99.90;;;;;;5030399;28;20092;-70
2021/09/04 00:48:16;;;;;;;24.73;16.83;;;12.60;99.90;;;;;;5031003;28;20080;-70
2021/09/04 00:50:42;;;;;;;24.77;16.08;;;12.50;99.90;;;;;;5031222;28;20030;-72
2021/09/04 00:53:07;;;;;;;23.35;15.10;;;12.50;99.90;;;;;;5032613;28;20026;-70
2021/09/04 00:55:33;;;;;;;20.67;15.60;;;12.40;99.90;;;;;;5037776;28;20021;-71
2021/09/04 00:57:59;;;;;;;22.75;15.60;;;12.50;99.90;;;;;;5038003;28;20045;-70
2021/09/04 01:00:25;;;;;;;21.55;16.02;;;12.40;99.90;;;;;;5034605;28;20026;-70
2021/09/04 01:02:51;;;;;;;23.80;16.42;;;12.50;99.90;;;;;;5034159;28;20030;-69
2021/09/04 01:05:17;;;;;;;23.17;16.17;;;12.50;99.90;;;;;;5033797;28;20033;-69
2021/09/04 01:07:43;;;;;;;22.05;16.45;;;12.50;99.90;;;;;;5034581;28;20025;-72
2021/09/04 01:10:10;;;;;;;26.85;17.00;;;12.40;99.90;;;;;;5034524;28;20037;-71
2021/09/04 01:12:37;;;;;;;26.73;17.25;;;12.40;99.90;;;;;;5034280;28;20503;-72
2021/09/04 01:15:04;;;;;;;26.70;17.58;;;12.40;99.90;;;;;;5033857;28;20087;-70
2021/09/04 01:17:30;;;;;;;22.35;17.05;;;12.30;99.90;;;;;;5034170;28;20025;-71
2021/09/04 01:19:56;;;;;;;20.35;14.70;;;12.30;99.90;;;;;;5033802;28;20021;-71
2021/09/04 01:22:22;;;;;;;20.90;15.25;;;12.20;99.90;;;;;;5034401;28;20021;-71
2021/09/04 01:24:50;;;;;;;21.85;14.40;;;12.20;99.90;;;;;;5033565;28;20091;-71
2021/09/04 01:27:18;;;;;;;21.25;15.13;;;12.10;99.90;;;;;;5067046;22;20104;-74
2021/09/04 01:29:44;;;;;;;22.15;15.85;;;12.10;99.90;;;;;;5032608;28;20060;-73
2021/09/04 01:32:10;;;;;;;25.63;17.02;;;12.20;99.90;;;;;;5035989;28;20522;-74
2021/09/04 01:34:36;;;;;;;20.08;16.20;;;12.10;99.90;;;;;;5034806;28;20113;-74
2021/09/04 01:37:01;;;;;;;23.48;15.45;;;12.10;99.90;;;;;;5016672;28;20525;-74
2021/09/04 01:39:27;;;;;;;23.50;16.80;;;12.10;99.90;;;;;;5016636;28;20099;-73
2021/09/04 01:41:53;;;;;;;29.00;15.55;;;12.10;99.90;;;;;;5034638;28;20475;-72
2021/09/04 01:44:18;;;;;;;22.25;15.55;;;12.10;99.90;;;;;;5016056;28;20525;-71
2021/09/04 01:46:45;;;;;;;21.20;15.90;;;12.00;99.90;;;;;;5016472;28;20025;-73
2021/09/04 01:49:11;;;;;;;20.40;16.02;;;12.00;99.90;;;;;;5033999;28;20033;-73
2021/09/04 01:51:36;;;;;;;22.27;17.63;;;11.90;99.90;;;;;;5034153;28;20524;-75
2021/09/04 01:54:02;;;;;;;22.90;16.95;;;11.90;99.90;;;;;;5033333;28;20029;-74
2021/09/04 01:56:28;;;;;;;25.52;17.45;;;11.90;99.90;;;;;;5033549;28;20021;-74
2021/09/04 01:58:53;;;;;;;26.73;18.33;;;11.90;99.90;;;;;;5033631;28;20028;-74
2021/09/04 02:01:19;;;;;;;28.65;18.60;;;11.90;99.90;;;;;;5033920;28;20025;-74
2021/09/04 02:03:45;;;;;;;28.23;19.02;;;11.90;99.90;;;;;;5016088;28;20021;-74
2021/09/04 02:06:10;;;;;;;32.10;19.63;;;11.90;99.90;;;;;;5032139;28;20400;-75
2021/09/04 02:08:36;;;;;;;28.67;19.67;;;11.90;99.90;;;;;;5033869;28;20040;-73
2021/09/04 02:11:02;;;;;;;24.63;17.80;;;11.80;99.90;;;;;;5033826;28;20018;-74
2021/09/04 02:13:28;;;;;;;25.05;17.65;;;11.90;99.90;;;;;;5033729;28;20029;-75
2021/09/04 02:15:54;;;;;;;23.90;18.00;;;11.80;99.90;;;;;;5033005;28;20026;-74
2021/09/04 02:18:20;;;;;;;24.65;17.17;;;11.80;99.90;;;;;;5015786;28;20060;-73
2021/09/04 02:20:48;;;;;;;24.17;18.27;;;11.80;99.90;;;;;;5032448;28;20056;-75
2021/09/04 02:23:14;;;;;;;30.75;18.88;;;11.80;99.90;;;;;;5033815;28;20471;-74
2021/09/04 02:25:40;;;;;;;28.55;18.65;;;11.80;99.90;;;;;;5032916;28;20156;-74
2021/09/04 02:28:05;;;;;;;24.17;18.05;;;11.80;99.90;;;;;;5031764;28;20510;-75
2021/09/04 02:30:32;;;;;;;24.98;18.05;;;11.70;99.90;;;;;;5015716;28;20128;-75
2021/09/04 02:32:57;;;;;;;26.85;18.42;;;11.70;99.90;;;;;;5033408;28;20101;-74
2021/09/04 02:35:24;;;;;;;26.33;16.55;;;11.70;99.90;;;;;;5015113;28;20053;-74
2021/09/04 02:37:49;;;;;;;25.65;17.83;;;11.60;99.90;;;;;;5033116;28;20088;-75
2021/09/04 02:40:15;;;;;;;24.90;18.45;;;11.70;99.90;;;;;;5032131;28;20431;-75
2021/09/04 02:42:41;;;;;;;24.23;17.75;;;11.70;99.90;;;;;;5015472;28;20029;-74
2021/09/04 02:45:07;;;;;;;26.80;19.48;;;11.60;99.90;;;;;;5032757;28;20018;-74
2021/09/04 02:47:33;;;;;;;27.50;20.08;;;11.60;99.90;;;;;;5034131;28;20025;-75
2021/09/04 02:49:59;;;;;;;30.92;18.98;;;11.60;99.90;;;;;;5035401;28;20081;-74
2021/09/04 02:52:25;;;;;;;29.17;19.80;;;11.60;99.90;;;;;;5033537;28;20103;-75
2021/09/04 02:54:50;;;;;;;27.73;18.70;;;11.60;99.90;;;;;;5032319;28;20028;-74
2021/09/04 02:57:16;;;;;;;32.53;19.33;;;11.60;99.90;;;;;;5032755;28;20116;-73
2021/09/04 02:59:42;;;;;;;27.40;19.15;;;11.60;99.90;;;;;;5031417;28;20041;-73
2021/09/04 03:02:07;;;;;;;32.70;18.63;;;11.50;99.90;;;;;;5032631;28;20399;-73
2021/09/04 03:04:33;;;;;;;26.70;19.00;;;11.60;99.90;;;;;;5032154;28;20438;-74
2021/09/04 03:06:59;;;;;;;29.15;19.20;;;11.50;99.90;;;;;;5032814;28;20476;-74
2021/09/04 03:09:24;;;;;;;26.80;19.33;;;11.50;99.90;;;;;;5032597;28;20029;-75
2021/09/04 03:11:50;;;;;;;27.27;19.77;;;11.50;99.90;;;;;;5032727;28;20026;-76
2021/09/04 03:14:15;;;;;;;29.80;20.38;;;11.40;99.90;;;;;;5031762;28;20499;-76
2021/09/04 03:16:42;;;;;;;29.17;19.88;;;11.40;99.90;;;;;;5032012;28;20367;-75
2021/09/04 03:19:07;;;;;;;28.83;19.15;;;11.40;99.90;;;;;;5032424;28;20029;-74
2021/09/04 03:21:33;;;;;;;29.27;17.80;;;11.30;99.90;;;;;;5014478;28;20028;-74
2021/09/04 03:23:58;;;;;;;33.28;18.13;;;11.40;99.90;;;;;;5030986;28;20544;-74
2021/09/04 03:26:24;;;;;;;29.92;18.88;;;11.30;99.90;;;;;;5031848;28;20021;-74
2021/09/04 03:28:50;;;;;;;28.10;19.02;;;11.30;99.90;;;;;;5014388;28;20117;-73
2021/09/04 03:31:16;;;;;;;26.40;19.00;;;11.30;99.90;;;;;;5032357;28;20432;-75
2021/09/04 03:33:41;;;;;;;24.85;18.08;;;11.20;99.90;;;;;;5032500;28;20036;-73
2021/09/04 03:36:07;;;;;;;28.02;19.42;;;11.20;99.90;;;;;;5031684;28;20021;-74
2021/09/04 03:38:32;;;;;;;25.08;18.70;;;11.30;99.90;;;;;;5032277;28;20033;-74
2021/09/04 03:40:58;;;;;;;27.13;18.98;;;11.20;99.90;;;;;;5031158;28;20022;-74
2021/09/04 03:43:24;;;;;;;31.13;19.52;;;11.20;99.90;;;;;;5032204;28;20014;-75
2021/09/04 03:45:49;;;;;;;25.17;18.33;;;11.20;99.90;;;;;;5031707;28;20067;-75
2021/09/04 03:48:15;;;;;;;28.35;19.05;;;11.10;99.90;;;;;;5032211;28;20495;-74
2021/09/04 03:50:41;;;;;;;26.83;18.65;;;11.10;99.90;;;;;;5032142;28;20026;-75
2021/09/04 03:53:06;;;;;;;26.85;18.83;;;11.10;99.90;;;;;;5018679;28;20380;-75
2021/09/04 03:55:32;;;;;;;32.25;19.88;;;11.10;99.90;;;;;;5011804;28;20026;-75
2021/09/04 03:57:57;;;;;;;28.92;19.38;;;11.10;99.90;;;;;;5012046;28;20113;-74
2021/09/04 04:00:23;;;;;;;26.85;18.75;;;11.10;99.90;;;;;;5012186;28;20022;-74
2021/09/04 04:02:49;;;;;;;28.00;19.08;;;11.10;99.90;;;;;;5012523;28;20018;-74
2021/09/04 04:05:14;;;;;;;28.02;19.50;;;11.00;99.90;;;;;;5011707;28;20026;-73
2021/09/04 04:07:41;;;;;;;31.70;19.42;;;11.00;99.90;;;;;;5012152;28;20029;-74
2021/09/04 04:10:07;;;;;;;29.23;20.15;;;11.00;99.90;;;;;;5010806;28;20037;-74
2021/09/04 04:12:34;;;;;;;28.95;19.10;;;11.00;99.90;;;;;;5012596;28;20109;-74
2021/09/04 04:14:59;;;;;;;29.85;18.52;;;11.00;99.90;;;;;;5009965;28;20029;-73
2021/09/04 04:17:25;;;;;;;29.42;19.35;;;11.00;99.90;;;;;;5011806;28;20534;-74
2021/09/04 04:19:50;;;;;;;30.10;18.77;;;11.00;99.90;;;;;;5011999;28;20033;-74
2021/09/04 04:22:16;;;;;;;28.15;18.38;;;10.90;99.90;;;;;;5018601;28;20022;-73
2021/09/04 04:24:42;;;;;;;26.05;17.40;;;10.90;99.90;;;;;;5031114;28;20018;-75
2021/09/04 04:27:08;;;;;;;23.77;17.88;;;10.90;99.90;;;;;;5031790;28;20132;-73
2021/09/04 04:29:34;;;;;;;27.42;19.40;;;10.90;99.90;;;;;;5034837;28;20527;-73
2021/09/04 04:31:59;;;;;;;27.30;19.10;;;10.90;99.90;;;;;;5030729;28;20373;-77
2021/09/04 04:34:25;;;;;;;26.15;17.42;;;10.90;99.90;;;;;;5036473;28;20040;-79
2021/09/04 04:36:51;;;;;;;25.23;18.42;;;10.90;99.90;;;;;;5039308;28;20025;-79
2021/09/04 04:39:16;;;;;;;24.88;18.20;;;10.90;99.90;;;;;;5036296;28;20021;-78
2021/09/04 04:41:42;;;;;;;26.30;17.83;;;10.90;99.90;;;;;;5036742;28;20100;-79
2021/09/04 04:44:08;;;;;;;26.70;19.92;;;11.00;99.90;;;;;;5036778;28;20029;-81
2021/09/04 04:46:33;;;;;;;29.83;19.73;;;11.00;99.90;;;;;;5036744;28;20032;-80
2021/09/04 04:48:59;;;;;;;25.73;18.73;;;10.90;99.90;;;;;;5037007;28;20032;-81
2021/09/04 04:51:25;;;;;;;23.45;16.90;;;10.90;99.90;;;;;;5036929;28;20025;-80
2021/09/04 04:53:51;;;;;;;22.27;16.45;;;10.90;99.90;;;;;;5036952;28;20030;-82
2021/09/04 04:56:16;;;;;;;23.08;16.70;;;10.90;99.90;;;;;;5037718;28;20029;-79
2021/09/04 04:58:42;;;;;;;22.95;15.90;;;10.90;99.90;;;;;;5035519;28;20045;-79
2021/09/04 05:01:08;;;;;;;25.23;17.55;;;10.90;99.90;;;;;;5039545;28;20036;-81
2021/09/04 05:03:33;;;;;;;27.00;18.90;;;11.00;99.90;;;;;;5038876;28;20033;-80
2021/09/04 05:06:00;;;;;;;25.63;18.52;;;11.00;99.90;;;;;;5037610;28;20026;-80
2021/09/04 05:08:26;;;;;;;32.72;18.77;;;11.00;99.90;;;;;;5036741;28;20025;-78
2021/09/04 05:10:52;;;;;;;23.95;17.73;;;11.10;99.90;;;;;;5035488;28;20053;-80
2021/09/04 05:13:18;;;;;;;25.77;17.90;;;11.00;99.90;;;;;;5036198;28;20033;-77
2021/09/04 05:15:43;;;;;;;27.17;17.50;;;11.10;99.90;;;;;;5017297;28;20403;-80
2021/09/04 05:18:10;;;;;;;34.70;19.10;;;11.10;99.90;;;;;;5018225;28;20052;-78
2021/09/04 05:20:37;;;;;;;26.23;18.25;;;11.10;99.90;;;;;;5036240;28;20029;-78
2021/09/04 05:23:03;;;;;;;26.27;18.33;;;11.00;99.90;;;;;;5044718;28;20037;-79
2021/09/04 05:25:28;;;;;;;28.88;17.48;;;11.10;99.90;;;;;;5041098;28;20032;-80
2021/09/04 05:27:54;;;;;;;28.73;17.70;;;11.10;99.90;;;;;;5037383;28;20044;-78
2021/09/04 05:30:20;;;;;;;28.30;17.70;;;11.10;99.90;;;;;;5034246;28;20037;-79
2021/09/04 05:32:45;;;;;;;21.98;17.00;;;11.00;99.90;;;;;;5034233;28;20025;-79
2021/09/04 05:35:11;;;;;;;22.45;17.55;;;11.10;99.90;;;;;;5017327;28;20036;-77
2021/09/04 05:37:37;;;;;;;22.75;16.60;;;11.10;99.90;;;;;;5014504;28;20096;-75
2021/09/04 05:40:03;;;;;;;20.88;14.35;;;11.00;99.90;;;;;;5014506;28;20583;-77
2021/09/04 05:42:29;;;;;;;20.30;14.82;;;11.10;99.90;;;;;;5014534;28;20096;-77
2021/09/04 05:44:55;;;;;;;18.55;15.02;;;11.20;99.90;;;;;;5013303;28;20145;-76
2021/09/04 05:47:21;;;;;;;19.77;15.40;;;11.20;99.90;;;;;;5014594;28;20105;-79
2021/09/04 05:49:46;;;;;;;21.30;14.90;;;11.20;99.90;;;;;;5015069;28;20108;-79
2021/09/04 05:52:12;;;;;;;23.77;15.90;;;11.30;99.90;;;;;;5021917;28;20040;-80
2021/09/04 05:54:38;;;;;;;21.58;15.77;;;11.40;99.90;;;;;;5035300;28;20131;-79
2021/09/04 05:57:03;;;;;;;23.70;16.10;;;11.30;99.90;;;;;;5035312;28;20838;-82
2021/09/04 05:59:29;;;;;;;17.67;14.88;;;11.40;99.90;;;;;;5035626;28;20025;-79
2021/09/04 06:01:55;;;;;;;20.27;16.40;;;11.40;99.90;;;;;;5017893;28;20481;-78
2021/09/04 06:04:21;;;;;;;18.35;14.48;;;11.50;99.90;;;;;;5017331;28;20113;-76
2021/09/04 06:06:47;;;;;;;15.40;12.07;;;11.50;99.90;;;;;;5016722;28;20511;-81
2021/09/04 06:09:12;;;;;;;18.08;12.70;;;11.30;99.90;;;;;;5034749;28;20472;-76
2021/09/04 06:11:38;;;;;;;17.75;12.27;;;11.20;99.90;;;;;;5034152;28;20494;-80
2021/09/04 06:14:05;;;;;;;17.42;13.15;;;11.20;99.90;;;;;;5034285;28;20018;-80
2021/09/04 06:16:31;;;;;;;19.08;13.05;;;11.30;99.90;;;;;;5034466;28;20372;-80
2021/09/04 06:18:57;;;;;;;19.83;13.70;;;11.40;99.90;;;;;;5017461;28;20068;-76
2021/09/04 06:21:23;;;;;;;14.27;12.35;;;11.50;99.90;;;;;;5033680;28;20014;-76
2021/09/04 06:23:48;;;;;;;19.27;13.32;;;11.60;99.90;;;;;;5038633;28;20026;-79
2021/09/04 06:26:14;;;;;;;16.23;12.55;;;11.60;99.90;;;;;;5046057;28;20041;-80
2021/09/04 06:28:40;;;;;;;15.85;12.98;;;11.70;99.90;;;;;;5039284;28;20037;-77
2021/09/04 06:31:09;;;;;;;16.33;11.68;;;11.70;99.90;;;;;;5035275;28;20072;-79
2021/09/04 06:33:34;;;;;;;14.32;12.15;;;11.70;99.90;;;;;;5041282;28;20025;-75
2021/09/04 06:36:00;;;;;;;14.30;11.82;;;11.70;99.90;;;;;;5032932;28;20042;-78
2021/09/04 06:38:25;;;;;;;18.23;14.60;;;11.80;99.90;;;;;;5015353;28;20129;-78
2021/09/04 06:40:51;;;;;;;17.70;13.30;;;12.00;99.90;;;;;;5032533;28;20053;-78
2021/09/04 06:43:17;;;;;;;16.75;13.23;;;12.10;99.90;;;;;;5034023;28;20113;-78
2021/09/04 06:45:42;;;;;;;17.52;12.45;;;12.20;99.90;;;;;;5033010;28;20479;-81
2021/09/04 06:48:08;;;;;;;14.65;11.93;;;12.20;99.90;;;;;;5015410;28;20069;-79
2021/09/04 06:50:34;;;;;;;14.52;12.02;;;12.20;99.90;;;;;;5032759;28;20021;-79
2021/09/04 06:53:01;;;;;;;13.43;11.50;;;12.30;99.90;;;;;;5033390;28;20037;-81
2021/09/04 06:55:27;;;;;;;14.90;11.55;;;12.40;99.90;;;;;;5015002;28;20086;-80
2021/09/04 06:57:53;;;;;;;16.77;12.77;;;12.50;99.90;;;;;;5033500;28;20030;-80
2021/09/04 07:00:19;;;;;;;15.55;12.10;;;12.50;99.90;;;;;;5033171;28;20160;-80
2021/09/04 07:02:45;;;;;;;16.95;12.65;;;12.60;99.90;;;;;;5034242;28;20026;-80
2021/09/04 07:05:10;;;;;;;16.67;11.85;;;12.80;99.90;;;;;;5033502;28;20028;-78
2021/09/04 07:07:36;;;;;;;17.17;11.48;;;12.90;99.90;;;;;;5033688;28;20097;-81
2021/09/04 07:10:02;;;;;;;14.20;11.27;;;12.90;99.90;;;;;;5033178;28;20048;-79
2021/09/04 07:12:28;;;;;;;14.00;10.93;;;13.00;99.90;;;;;;5029152;28;20019;-77
2021/09/04 07:14:53;;;;;;;14.93;11.77;;;13.10;99.90;;;;;;5011979;28;20036;-79
2021/09/04 07:17:19;;;;;;;13.05;11.60;;;13.20;99.90;;;;;;5011371;28;20034;-78
2021/09/04 07:19:47;;;;;;;13.68;11.50;;;13.30;99.90;;;;;;5031865;28;20109;-78
2021/09/04 07:22:12;;;;;;;13.13;10.82;;;13.60;99.90;;;;;;5033430;28;20382;-80
2021/09/04 07:24:38;;;;;;;15.73;11.35;;;13.80;99.90;;;;;;5036105;28;20022;-78
2021/09/04 07:27:04;;;;;;;16.95;11.27;;;13.90;99.90;;;;;;5034790;28;20084;-79
2021/09/04 07:29:30;;;;;;;14.32;10.50;;;13.90;99.90;;;;;;5083391;22;20254;-76
2021/09/04 07:31:55;;;;;;;13.05;10.93;;;14.10;99.90;;;;;;5080074;28;20025;-77
2021/09/04 07:34:21;;;;;;;12.23;10.77;;;14.20;99.90;;;;;;5053271;28;20039;-76
2021/09/04 07:36:47;;;;;;;15.20;11.02;;;14.50;99.90;;;;;;5071873;28;20052;-74
2021/09/04 07:39:12;;;;;;;13.15;10.68;;;14.60;99.90;;;;;;5072466;28;20100;-75
2021/09/04 07:41:38;;;;;;;12.27;10.13;;;14.80;99.90;;;;;;5056141;28;20115;-79
2021/09/04 07:44:04;;;;;;;13.65;10.38;;;14.90;99.90;;;;;;5075150;28;20035;-76
2021/09/04 07:46:30;;;;;;;15.23;9.73;;;15.00;99.90;;;;;;5070078;28;20584;-77
2021/09/04 07:48:55;;;;;;;12.30;9.55;;;15.20;99.90;;;;;;5071655;28;20070;-75
2021/09/04 07:51:21;;;;;;;13.65;8.77;;;15.40;99.90;;;;;;5071734;28;20032;-77
2021/09/04 07:53:47;;;;;;;12.48;8.75;;;15.70;99.90;;;;;;5071549;28;20090;-76
2021/09/04 07:56:12;;;;;;;8.68;7.35;;;15.70;99.90;;;;;;5071371;28;20107;-75
2021/09/04 07:58:38;;;;;;;10.07;8.90;;;16.10;99.90;;;;;;5071332;28;20028;-76
2021/09/04 08:01:04;;;;;;;10.82;9.05;;;16.40;99.90;;;;;;5052759;28;20104;-76
2021/09/04 08:03:30;;;;;;;9.40;8.50;;;16.80;99.90;;;;;;5051404;28;20104;-76
2021/09/04 08:05:55;;;;;;;12.15;8.20;;;16.90;99.90;;;;;;5050840;28;20542;-77
2021/09/04 08:08:21;;;;;;;9.40;7.88;;;17.20;99.90;;;;;;5052637;28;20051;-77
2021/09/04 08:10:47;;;;;;;9.68;8.38;;;17.60;99.90;;;;;;5053512;28;20052;-77
2021/09/04 08:13:13;;;;;;;12.77;7.95;;;17.80;99.90;;;;;;5052847;28;20025;-77
2021/09/04 08:15:40;;;;;;;8.18;7.38;;;18.10;99.90;;;;;;5036695;28;20034;-75
2021/09/04 08:18:05;;;;;;;8.90;8.00;;;18.70;99.90;;;;;;5031316;28;20152;-75
2021/09/04 08:20:32;;;;;;;9.32;7.60;;;18.80;99.90;;;;;;5031587;28;20104;-74
2021/09/04 08:22:57;;;;;;;8.77;7.90;;;19.00;99.90;;;;;;5031272;28;20194;-74
2021/09/04 08:25:23;;;;;;;7.90;7.20;;;19.10;99.90;;;;;;5030524;28;20491;-74
2021/09/04 08:27:49;;;;;;;9.15;7.35;;;19.60;99.90;;;;;;5041961;28;20086;-75
2021/09/04 08:30:15;;;;;;;9.05;8.15;;;20.00;99.90;;;;;;5050139;28;20036;-73
2021/09/04 08:32:40;;;;;;;7.90;7.20;;;19.70;99.90;;;;;;5051489;28;20039;-74
2021/09/04 08:35:07;;;;;;;9.18;6.43;;;20.20;99.90;;;;;;5051041;28;20032;-75
2021/09/04 08:37:32;;;;;;;9.45;6.78;;;20.90;99.90;;;;;;5051164;28;20036;-75
2021/09/04 08:39:58;;;;;;;7.88;6.65;;;21.20;99.90;;;;;;5032780;28;20017;-75
2021/09/04 08:42:24;;;;;;;9.23;6.72;;;21.10;99.90;;;;;;5051244;28;20067;-75
2021/09/04 08:44:49;;;;;;;7.45;6.75;;;21.30;99.90;;;;;;5050420;28;20022;-75
2021/09/04 08:47:19;;;;;;;6.75;5.97;;;21.50;99.90;;;;;;5051356;28;20083;-77
2021/09/04 08:49:47;;;;;;;7.85;6.47;;;21.40;99.90;;;;;;5050952;28;20029;-76
2021/09/04 08:52:12;;;;;;;10.15;6.60;;;22.20;99.90;;;;;;5033912;28;20067;-75
2021/09/04 08:54:38;;;;;;;10.43;6.28;;;22.30;99.90;;;;;;5051286;28;20029;-76
2021/09/04 08:57:04;;;;;;;11.68;6.22;;;22.70;99.90;;;;;;5051998;28;20033;-76
2021/09/04 08:59:29;;;;;;;7.32;6.63;;;22.70;99.90;;;;;;5051553;28;20036;-76
2021/09/04 09:01:55;;;;;;;6.28;5.68;;;23.10;99.90;;;;;;5050423;28;20108;-77
2021/09/04 09:04:24;;;;;;;7.80;7.07;;;22.90;99.90;;;;;;5050334;28;20017;-77
2021/09/04 09:06:50;;;;;;;7.93;6.22;;;21.80;99.90;;;;;;5051935;28;20020;-77
2021/09/04 09:09:20;;;;;;;7.13;6.43;;;22.40;99.90;;;;;;5054426;28;20029;-77
2021/09/04 09:11:48;;;;;;;6.53;5.82;;;23.60;99.90;;;;;;5062776;28;20028;-76
2021/09/04 09:14:14;;;;;;;8.68;5.95;;;24.40;99.90;;;;;;5066549;28;20055;-77
2021/09/04 09:17:01;;;;;;;6.30;5.30;;;25.00;99.90;;;;;;5052618;28;20059;-77
2021/09/04 09:19:38;;;;;;;5.40;4.90;;;26.20;99.90;;;;;;5037490;28;20383;-77
2021/09/04 09:22:17;;;;;;;9.70;6.03;;;27.20;99.90;;;;;;5055028;28;20029;-77
2021/09/04 09:24:43;;;;;;;5.03;4.65;;;28.10;99.90;;;;;;5034783;28;20624;-78
2021/09/04 09:27:14;;;;;;;5.53;5.03;;;28.80;99.70;;;;;;5054671;28;20032;-77
2021/09/04 09:29:44;;;;;;;4.78;4.43;;;28.20;98.90;;;;;;5054105;28;20064;-77
2021/09/04 09:32:12;;;;;;;5.10;4.60;;;28.00;98.60;;;;;;5054128;28;20025;-77
2021/09/04 09:34:43;;;;;;;5.32;4.93;;;28.30;98.00;;;;;;5053525;28;20120;-77
2021/09/04 09:37:11;;;;;;;4.97;4.55;;;27.80;97.60;;;;;;5054062;28;20494;-77
2021/09/04 09:39:39;;;;;;;5.32;4.93;;;28.70;97.60;;;;;;5054087;28;20111;-77
2021/09/04 09:42:06;;;;;;;8.70;4.80;;;28.80;96.00;;;;;;5053822;28;20509;-77
2021/09/04 09:44:34;;;;;;;5.50;5.07;;;28.90;96.30;;;;;;5054687;28;20032;-77
2021/09/04 09:47:01;;;;;;;7.30;5.30;;;28.80;95.60;;;;;;5057679;28;20502;-77
2021/09/04 09:49:33;;;;;;;6.65;5.15;;;28.80;97.10;;;;;;5060272;28;20052;-78
2021/09/04 09:52:12;;;;;;;5.60;5.00;;;29.10;95.20;;;;;;5061106;28;20025;-77
2021/09/04 09:54:39;;;;;;;6.10;5.60;;;29.10;94.30;;;;;;5042483;28;20033;-78
2021/09/04 09:57:07;;;;;;;5.38;4.97;;;29.10;94.50;;;;;;5042625;28;20029;-77
2021/09/04 09:59:33;;;;;;;4.80;4.50;;;29.40;94.00;;;;;;5041621;28;20048;-78
2021/09/04 10:02:07;;;;;;;4.93;4.53;;;29.40;92.40;;;;;;5060504;28;20021;-77
2021/09/04 10:04:35;;;;;;;4.97;4.57;;;29.20;92.30;;;;;;5041777;28;20025;-78
2021/09/04 10:07:02;;;;;;;5.80;4.65;;;28.80;91.70;;;;;;5054200;28;20459;-77
2021/09/04 10:09:28;;;;;;;4.93;4.30;;;28.40;91.90;;;;;;5053902;28;20029;-76
2021/09/04 10:11:54;;;;;;;4.65;4.25;;;29.20;92.10;;;;;;5053974;28;20097;-77
2021/09/04 10:14:21;;;;;;;4.65;4.15;;;30.40;90.20;;;;;;5053451;28;20108;-78
2021/09/04 10:16:51;;;;;;;4.50;4.20;;;30.40;91.00;;;;;;5053962;28;20498;-77
2021/09/04 10:19:43;;;;;;;4.45;4.15;;;30.50;85.80;;;;;;5054012;28;20445;-77
2021/09/04 10:22:10;;;;;;;4.45;4.15;;;30.80;90.50;;;;;;5051823;28;20040;-77
2021/09/04 10:24:42;;;;;;;4.10;3.80;;;31.30;82.10;;;;;;5054530;28;20025;-76
2021/09/04 10:27:08;;;;;;;4.10;3.53;;;31.40;78.00;;;;;;5056985;28;20087;-76
2021/09/04 10:29:42;;;;;;;4.13;3.80;;;31.20;76.00;;;;;;5059229;28;20040;-75
2021/09/04 10:32:08;;;;;;;4.03;3.83;;;30.80;81.70;;;;;;5056590;28;20035;-77
2021/09/04 10:34:36;;;;;;;4.50;4.20;;;30.90;81.80;;;;;;5056111;28;20031;-76
2021/09/04 10:37:11;;;;;;;5.25;4.68;;;31.10;81.70;;;;;;5039751;28;20032;-78
2021/09/04 10:39:57;;;;;;;8.50;4.20;;;30.40;83.80;;;;;;5058135;28;20021;-77
2021/09/04 10:42:32;;;;;;;4.45;4.05;;;31.00;84.30;;;;;;5047457;28;20017;-77
2021/09/04 10:45:03;;;;;;;5.93;4.60;;;29.50;83.90;;;;;;5029546;28;20022;-78
2021/09/04 10:47:40;;;;;;;4.40;4.10;;;29.90;87.30;;;;;;5028691;28;20032;-77
2021/09/04 10:50:20;;;;;;;4.30;4.00;;;30.90;84.20;;;;;;5046366;28;20048;-77
2021/09/04 10:52:46;;;;;;;4.87;4.43;;;31.90;80.80;;;;;;5038026;28;20029;-77
2021/09/04 10:55:31;;;;;;;4.60;3.80;;;32.00;82.10;;;;;;5050357;28;20039;-77
2021/09/04 10:58:06;;;;;;;4.10;3.80;;;32.10;77.80;;;;;;5046769;28;20402;-77
2021/09/04 11:00:39;;;;;;;4.55;3.70;;;31.90;74.40;;;;;;5046270;28;20022;-77
2021/09/04 11:03:21;;;;;;;4.45;3.78;;;32.10;75.20;;;;;;5029177;28;20017;-76
2021/09/04 11:05:59;;;;;;;4.07;3.78;;;32.00;74.70;;;;;;5049623;28;20052;-76
2021/09/04 11:08:44;;;;;;;4.00;3.58;;;31.50;76.10;;;;;;5032179;28;20021;-77
2021/09/04 11:11:19;;;;;;;3.65;3.38;;;31.80;77.50;;;;;;5047498;28;20483;-76
2021/09/04 11:13:56;;;;;;;4.80;3.85;;;32.10;77.10;;;;;;5048103;28;20083;-76
2021/09/04 11:16:32;;;;;;;5.05;3.88;;;32.10;73.10;;;;;;5044620;28;20036;-76
2021/09/04 11:19:29;;;;;;;5.38;4.32;;;31.10;75.30;;;;;;5040665;28;20029;-75
2021/09/04 11:21:58;;;;;;;4.70;3.55;;;31.00;76.00;;;;;;5040641;28;20059;-77
2021/09/04 11:24:28;;;;;;;4.40;3.47;;;31.20;79.10;;;;;;5041802;28;20017;-75
2021/09/04 11:27:00;;;;;;;3.78;3.33;;;32.70;72.90;;;;;;5028247;28;20037;-76
2021/09/04 11:29:27;;;;;;;4.45;3.60;;;34.10;69.70;;;;;;5041497;28;20124;-77
2021/09/04 11:32:00;;;;;;;5.32;3.90;;;33.80;69.50;;;;;;5041987;28;20032;-76
2021/09/04 11:34:56;;;;;;;4.22;3.83;;;34.90;66.90;;;;;;5043596;28;20028;-75
2021/09/04 11:37:29;;;;;;;30.00;4.75;;;33.60;69.80;;;;;;5048425;28;20494;-75
2021/09/04 11:40:16;;;;;;;3.78;3.47;;;33.50;69.60;;;;;;5040943;28;20132;-76
2021/09/04 11:42:47;;;;;;;3.75;3.45;;;33.60;63.60;;;;;;5040669;28;20028;-74
2021/09/04 11:45:15;;;;;;;4.43;3.55;;;32.60;71.60;;;;;;5046787;28;20033;-76
2021/09/04 11:47:44;;;;;;;4.00;3.38;;;32.20;70.50;;;;;;5046092;28;20434;-76
2021/09/04 11:50:18;;;;;;;4.88;3.92;;;32.90;66.70;;;;;;5048823;28;20105;-75
2021/09/04 11:52:43;;;;;;;3.78;3.38;;;31.00;68.90;;;;;;5048182;28;20163;-76
2021/09/04 11:55:21;;;;;;;4.32;3.60;;;30.70;71.90;;;;;;5046630;28;20061;-75
2021/09/04 11:57:49;;;;;;;5.05;3.72;;;30.20;68.80;;;;;;5029719;28;20031;-75
2021/09/04 12:00:20;;;;;;;4.20;3.80;;;29.60;74.30;;;;;;5045022;28;20022;-75
2021/09/04 12:02:54;;;;;;;3.90;3.60;;;30.00;73.40;;;;;;5042459;28;20061;-76
2021/09/04 12:05:22;;;;;;;4.72;3.50;;;30.50;73.00;;;;;;5038978;28;20026;-76
2021/09/04 12:07:48;;;;;;;7.95;4.07;;;31.00;74.20;;;;;;5017651;28;20026;-74
2021/09/04 12:10:19;;;;;;;4.40;3.60;;;30.60;69.70;;;;;;5044331;28;20033;-75
2021/09/04 12:12:45;;;;;;;3.45;3.15;;;30.60;72.40;;;;;;5042737;28;20025;-75
2021/09/04 12:15:13;;;;;;;4.03;3.67;;;31.40;70.90;;;;;;5041513;28;20510;-75
2021/09/04 12:17:53;;;;;;;3.88;3.58;;;31.00;72.70;;;;;;5042619;28;20028;-75
2021/09/04 12:20:26;;;;;;;4.25;3.60;;;30.00;69.50;;;;;;5042020;28;20017;-74
2021/09/04 12:22:59;;;;;;;3.17;2.92;;;30.30;71.90;;;;;;5040739;28;20017;-75
2021/09/04 12:25:33;;;;;;;3.75;3.20;;;31.20;71.30;;;;;;5025306;28;20029;-74
2021/09/04 12:28:02;;;;;;;3.60;3.30;;;31.00;65.30;;;;;;5041685;28;20044;-75
2021/09/04 12:30:28;;;;;;;3.67;3.47;;;31.90;69.00;;;;;;5044026;28;20403;-76
2021/09/04 12:33:10;;;;;;;3.33;3.03;;;32.60;64.70;;;;;;5070910;28;20020;-77
2021/09/04 12:35:50;;;;;;;3.90;3.50;;;32.50;65.80;;;;;;5061016;28;20029;-76